Saint Petersburg, Florida
Current Conditions -  °F | °C
As of 11:53 AM on Sunday 23 Nov 2014 (Local Time) from KSPG Reporting Station
Few Clouds Few Clouds  
Wind Chill: 81°   Ceiling: Unl
Heat Index: 84°   Visibility: 10mi
Dew Point: 69°   Wind: 20mph
Humidity: 67%   Direction: 200°SSW
Pressure: 29.94"   Gusts: 26mph
Location:  27.77°N, 82.63°W
Report Text: KSPG 231653Z 20017G23KT 10SM FEW029 27/21 A2994 RMK AO2 SLP137 T02720206
Loading
Personal Weather Stations






























Interactive Weather Map New forecast layout! Learn more

10-Day Weather Forecast

Advertisements
Track Severe Weather on mobile